Time;durP1;ratioP1;P1;durP2;ratioP2;P2;SDS_P1;SDS_P2;PMS_P1;PMS_P2;Temp;Humidity;BMP_temperature;BMP_pressure;BME280_temperature;BME280_humidity;BME280_pressure;Samples;Min_cycle;Max_cycle;Signal;HPM_P1;HPM_P2
2022/12/13 00:01:17;;;;;;;1.37;1.10;;;;;;;7.68;86.42;98762.25;5035392;28;20199;-55
2022/12/13 00:03:44;;;;;;;1.33;1.23;;;;;;;7.61;86.10;98762.09;5035860;28;20198;-56
2022/12/13 00:06:12;;;;;;;1.40;1.30;;;;;;;7.53;87.00;98771.34;5035613;28;20567;-55
2022/12/13 00:08:40;;;;;;;1.30;1.20;;;;;;;7.47;86.58;98773.81;5035547;28;20586;-56
2022/12/13 00:11:10;;;;;;;1.20;1.20;;;;;;;7.31;85.64;98761.59;5035453;28;20721;-56
2022/12/13 00:13:37;;;;;;;2.33;1.63;;;;;;;7.34;85.13;98769.31;5035546;28;20681;-55
2022/12/13 00:16:06;;;;;;;1.70;1.60;;;;;;;7.32;83.14;98769.28;5035510;28;20200;-55
2022/12/13 00:18:34;;;;;;;2.47;2.10;;;;;;;7.31;83.05;98787.13;5035342;28;20682;-56
2022/12/13 00:21:05;;;;;;;2.93;2.70;;;;;;;7.22;81.61;98772.53;5035326;28;20191;-56
2022/12/13 00:23:32;;;;;;;2.73;2.53;;;;;;;7.12;80.34;98786.81;5035604;28;20682;-55
2022/12/13 00:26:03;;;;;;;1.97;1.73;;;;;;;7.08;81.44;98782.50;5035761;28;20198;-55
2022/12/13 00:28:30;;;;;;;2.63;2.20;;;;;;;7.04;81.93;98795.16;5035445;28;20199;-56
2022/12/13 00:30:57;;;;;;;2.27;2.17;;;;;;;6.96;82.42;98802.69;5035117;28;20614;-56
2022/12/13 00:33:24;;;;;;;2.57;2.37;;;;;;;6.97;81.92;98803.56;5035028;28;20707;-56
2022/12/13 00:35:52;;;;;;;2.90;2.70;;;;;;;6.91;81.79;98795.78;5034883;28;20614;-56
2022/12/13 00:38:19;;;;;;;2.60;2.40;;;;;;;6.89;80.87;98795.75;5035263;28;20265;-56
2022/12/13 00:40:46;;;;;;;2.50;2.30;;;;;;;6.85;80.48;98793.09;5034714;28;20195;-56
2022/12/13 00:43:13;;;;;;;2.70;2.50;;;;;;;6.81;79.60;98815.13;5034990;28;20202;-56
2022/12/13 00:45:41;;;;;;;4.07;2.70;;;;;;;6.82;79.30;98805.78;5034771;28;20242;-56
2022/12/13 00:48:07;;;;;;;3.10;2.80;;;;;;;6.73;80.16;98803.91;5034834;28;20187;-56
2022/12/13 00:50:34;;;;;;;2.53;2.33;;;;;;;6.72;80.63;98806.47;5034611;28;20188;-56
2022/12/13 00:53:02;;;;;;;2.50;2.30;;;;;;;6.66;81.30;98807.19;5034754;28;20229;-56
2022/12/13 00:55:29;;;;;;;2.77;2.57;;;;;;;6.60;82.67;98806.19;5034842;28;20256;-56
2022/12/13 00:57:56;;;;;;;2.33;2.13;;;;;;;6.53;82.95;98811.19;5034632;28;20197;-56
2022/12/13 01:00:24;;;;;;;2.30;2.10;;;;;;;6.52;83.60;98813.69;5034446;28;20195;-55
2022/12/13 01:02:52;;;;;;;2.17;2.03;;;;;;;6.47;83.37;98808.50;5034350;28;20204;-55
2022/12/13 01:05:19;;;;;;;2.60;2.40;;;;;;;6.46;84.59;98821.22;5034357;28;20208;-55
2022/12/13 01:07:47;;;;;;;2.70;2.50;;;;;;;6.49;84.27;98817.03;5034447;28;20276;-56
2022/12/13 01:10:15;;;;;;;2.60;2.40;;;;;;;6.48;84.01;98825.50;5034443;28;20186;-56
2022/12/13 01:12:42;;;;;;;2.50;2.30;;;;;;;6.50;83.71;98808.56;5046544;28;20556;-56
2022/12/13 01:15:09;;;;;;;2.40;2.20;;;;;;;6.09;83.57;98755.81;5054560;28;20195;-55
2022/12/13 01:17:36;;;;;;;2.67;2.43;;;;;;;6.40;83.20;98824.50;5054608;28;20190;-56
2022/12/13 01:20:05;;;;;;;2.83;2.63;;;;;;;6.40;82.95;98827.03;5054731;28;20192;-55
2022/12/13 01:22:31;;;;;;;3.43;2.40;;;;;;;6.33;83.24;98820.09;5067533;28;20200;-56
2022/12/13 01:24:58;;;;;;;2.50;2.30;;;;;;;6.33;84.02;98816.69;5072037;28;20189;-56
2022/12/13 01:27:26;;;;;;;2.80;2.60;;;;;;;6.33;83.08;98816.69;5073707;28;20243;-56
2022/12/13 01:29:53;;;;;;;2.50;2.30;;;;;;;6.36;82.11;98816.75;5074028;28;20590;-56
2022/12/13 01:32:20;;;;;;;3.00;2.70;;;;;;;6.37;82.55;98828.69;5073934;28;20652;-56
2022/12/13 01:34:47;;;;;;;2.63;2.43;;;;;;;6.26;83.33;98805.47;5073793;28;20278;-55
2022/12/13 01:37:13;;;;;;;3.07;2.77;;;;;;;6.40;81.43;98832.16;5073843;28;20198;-56
2022/12/13 01:39:40;;;;;;;3.20;2.90;;;;;;;6.37;81.21;98847.38;5073950;28;20217;-56
2022/12/13 01:42:07;;;;;;;3.50;3.20;;;;;;;6.38;81.34;98853.34;5073499;28;20188;-56
2022/12/13 01:45:18;;;;;;;3.47;3.17;;;;;;;6.31;81.76;98846.41;5073689;28;20202;-56
2022/12/13 01:47:48;;;;;;;3.40;3.10;;;;;;;6.31;82.48;98846.41;5031914;28;20239;-56
2022/12/13 01:50:18;;;;;;;3.20;3.00;;;;;;;6.30;81.94;98848.09;5031635;28;20198;-56
2022/12/13 01:52:47;;;;;;;4.00;3.70;;;;;;;6.33;80.74;98854.94;5030370;28;20441;-56
2022/12/13 01:55:16;;;;;;;3.97;3.50;;;;;;;6.34;80.92;98847.34;5031527;28;20285;-56
2022/12/13 01:57:44;;;;;;;3.60;3.30;;;;;;;6.30;78.67;98849.78;5031631;28;20197;-56
2022/12/13 02:00:14;;;;;;;6.10;3.10;;;;;;;6.24;78.05;98840.28;5031265;28;20188;-56
2022/12/13 02:02:41;;;;;;;4.10;3.70;;;;;;;6.18;76.64;98837.59;5031350;28;20242;-56
2022/12/13 02:05:11;;;;;;;3.50;3.20;;;;;;;6.15;76.54;98857.97;5031313;28;20676;-56
2022/12/13 02:07:40;;;;;;;3.60;3.30;;;;;;;6.07;75.51;98844.13;5031088;28;20298;-56
2022/12/13 02:10:08;;;;;;;3.80;3.20;;;;;;;6.21;74.75;98839.34;5031111;28;20189;-56
2022/12/13 02:12:37;;;;;;;3.57;3.27;;;;;;;6.26;74.46;98833.53;5030323;28;20297;-56
2022/12/13 02:15:10;;;;;;;4.67;3.30;;;;;;;6.28;74.10;98847.19;5031069;28;20221;-55
2022/12/13 02:18:02;;;;;;;3.60;3.30;;;;;;;6.31;73.02;98847.28;5037232;28;20191;-56
2022/12/13 02:21:01;;;;;;;3.73;3.43;;;;;;;6.40;74.41;98847.44;5073668;28;20276;-56
2022/12/13 02:23:51;;;;;;;4.63;4.13;;;;;;;6.35;74.61;98859.25;5069306;28;20248;-56
2022/12/13 02:26:54;;;;;;;4.30;3.90;;;;;;;6.36;74.92;98873.75;5072954;28;20649;-56
2022/12/13 02:30:03;;;;;;;3.90;3.50;;;;;;;6.30;74.83;98875.28;5073022;28;20196;-55
2022/12/13 02:32:39;;;;;;;4.23;3.83;;;;;;;6.25;74.86;98893.03;5072414;28;20187;-56
2022/12/13 02:35:10;;;;;;;4.83;4.30;;;;;;;6.20;75.10;98886.97;5072839;28;20225;-55
2022/12/13 02:37:48;;;;;;;4.17;3.77;;;;;;;6.14;74.26;98888.50;5072975;28;20197;-55
2022/12/13 02:40:22;;;;;;;4.27;3.87;;;;;;;6.12;74.57;98897.81;5072736;28;20192;-55
2022/12/13 02:42:57;;;;;;;4.17;3.80;;;;;;;6.07;73.38;98897.69;5072570;28;20618;-55
2022/12/13 02:45:30;;;;;;;4.32;3.92;;;;;;;5.96;73.99;98896.56;5052326;28;20536;-56
2022/12/13 02:48:02;;;;;;;4.37;3.97;;;;;;;5.91;74.17;98887.94;5051143;28;20548;-56
2022/12/13 02:50:32;;;;;;;4.63;4.17;;;;;;;5.89;74.14;98892.16;5052116;28;20198;-55
2022/12/13 02:53:00;;;;;;;4.83;4.10;;;;;;;5.87;73.29;98883.59;5052570;28;20228;-55
2022/12/13 02:55:27;;;;;;;4.27;3.87;;;;;;;5.84;73.78;98894.56;5052321;28;20189;-55
2022/12/13 02:57:54;;;;;;;4.27;3.87;;;;;;;5.79;73.75;98893.59;5052308;28;20196;-56
2022/12/13 03:00:24;;;;;;;4.40;4.00;;;;;;;5.73;73.24;98892.56;5052332;28;20193;-56
2022/12/13 03:03:06;;;;;;;4.27;3.87;;;;;;;5.71;74.42;98904.41;5052317;28;20702;-56
2022/12/13 03:08:31;;;;;;;4.97;4.47;;;;;;;5.69;74.01;98913.66;5062171;28;20216;-55
2022/12/13 03:11:04;;;;;;;4.40;4.00;;;;;;;5.69;72.96;98923.88;5072411;28;20183;-55
2022/12/13 03:13:39;;;;;;;4.33;3.93;;;;;;;5.60;73.57;98913.47;5072071;28;20225;-56
2022/12/13 03:16:13;;;;;;;4.50;4.10;;;;;;;5.61;73.68;98910.06;5072046;28;20223;-55
2022/12/13 03:18:42;;;;;;;4.47;4.00;;;;;;;5.62;73.55;98917.75;5072359;28;20198;-55
2022/12/13 03:21:09;;;;;;;4.80;3.77;;;;;;;5.58;72.53;98912.53;5071888;28;20207;-55
2022/12/13 03:23:37;;;;;;;5.10;4.60;;;;;;;5.58;73.44;98920.16;5071822;28;20195;-55
2022/12/13 03:26:09;;;;;;;4.70;4.13;;;;;;;5.68;72.91;98925.56;5072165;28;20188;-55
2022/12/13 03:28:36;;;;;;;4.07;3.67;;;;;;;5.72;72.04;98921.41;5072098;28;20245;-55
2022/12/13 03:31:03;;;;;;;3.77;3.47;;;;;;;5.72;72.52;98927.38;5071772;28;20187;-56
2022/12/13 03:33:30;;;;;;;4.07;3.67;;;;;;;5.76;72.62;98919.00;5071952;28;20215;-56
2022/12/13 03:35:59;;;;;;;4.50;4.10;;;;;;;5.79;72.80;98926.72;5072115;28;20198;-56
2022/12/13 03:38:26;;;;;;;4.17;3.80;;;;;;;5.68;71.78;98904.31;5051881;28;20194;-55
2022/12/13 03:40:57;;;;;;;5.20;4.10;;;;;;;5.78;71.87;98917.34;5051934;28;20193;-56
2022/12/13 03:43:24;;;;;;;4.17;3.87;;;;;;;5.80;71.33;98919.91;5052331;28;20196;-56
2022/12/13 03:45:52;;;;;;;4.37;3.73;;;;;;;5.81;72.06;98912.31;5051546;28;20191;-56
2022/12/13 03:48:19;;;;;;;4.30;3.80;;;;;;;5.84;71.03;98908.97;5051686;28;20197;-55
2022/12/13 03:50:45;;;;;;;4.40;4.00;;;;;;;5.82;72.48;98910.63;5051630;28;20196;-55
2022/12/13 03:53:14;;;;;;;4.87;4.43;;;;;;;5.76;72.64;98903.69;5051483;28;20228;-55
2022/12/13 03:55:41;;;;;;;4.83;4.43;;;;;;;5.75;71.86;98909.59;5051799;28;20193;-55
2022/12/13 03:58:07;;;;;;;4.87;4.27;;;;;;;5.74;70.87;98909.59;5052230;28;20250;-55
2022/12/13 04:00:34;;;;;;;4.20;3.83;;;;;;;5.74;70.99;98912.97;5051821;28;20185;-55
2022/12/13 04:03:01;;;;;;;4.30;3.90;;;;;;;5.67;70.58;98910.22;5051881;28;20189;-55
2022/12/13 04:05:29;;;;;;;4.67;3.90;;;;;;;5.64;70.92;98905.06;5052113;28;20247;-56
2022/12/13 04:07:56;;;;;;;4.70;4.13;;;;;;;5.63;69.97;98898.25;5057128;28;20551;-55
2022/12/13 04:10:24;;;;;;;4.20;3.80;;;;;;;5.62;68.91;98904.16;5064055;28;20193;-55
2022/12/13 04:15:36;;;;;;;4.23;3.83;;;;;;;5.51;69.11;98898.78;5031838;28;20762;-56
2022/12/13 04:18:02;;;;;;;4.03;3.53;;;;;;;5.51;69.78;98882.63;5043141;28;20609;-57
2022/12/13 04:20:32;;;;;;;4.00;3.63;;;;;;;5.64;68.59;98920.34;5051179;28;20206;-56
2022/12/13 04:22:59;;;;;;;4.50;3.70;;;;;;;5.62;69.07;98914.34;5051388;28;20188;-56
2022/12/13 04:25:27;;;;;;;4.60;4.00;;;;;;;5.62;68.18;98929.63;5051486;28;20193;-56
2022/12/13 04:27:54;;;;;;;4.47;4.10;;;;;;;5.61;67.93;98930.44;5051255;28;20192;-55
2022/12/13 04:30:21;;;;;;;4.77;4.13;;;;;;;5.71;68.11;98937.53;5044139;28;20199;-56
2022/12/13 04:32:47;;;;;;;4.90;4.17;;;;;;;5.64;67.71;98925.44;5061738;28;20570;-56
2022/12/13 04:35:14;;;;;;;3.83;3.53;;;;;;;5.66;68.09;98939.94;5073126;28;20242;-56
2022/12/13 04:37:41;;;;;;;4.83;4.27;;;;;;;5.55;68.44;98902.28;5075372;28;20275;-56
2022/12/13 04:40:09;;;;;;;4.80;4.00;;;;;;;5.65;69.11;98937.38;5075337;28;20620;-56
2022/12/13 04:42:37;;;;;;;4.60;4.17;;;;;;;5.61;69.52;98940.63;5075124;28;20198;-56
2022/12/13 04:45:05;;;;;;;4.37;3.97;;;;;;;5.58;68.56;98943.97;5074633;28;20551;-56
2022/12/13 04:47:32;;;;;;;4.40;3.97;;;;;;;5.56;68.95;98939.66;5074640;28;20193;-56
2022/12/13 04:49:59;;;;;;;4.73;4.00;;;;;;;5.55;68.14;98951.53;5074685;28;20216;-56
2022/12/13 04:52:26;;;;;;;8.93;4.73;;;;;;;5.55;67.19;98948.97;5074551;28;20234;-56
2022/12/13 04:54:53;;;;;;;7.03;4.83;;;;;;;5.62;66.58;98970.41;5076239;28;20217;-56
2022/12/13 04:57:20;;;;;;;6.20;4.97;;;;;;;5.60;66.16;98964.41;5072992;28;20559;-56
2022/12/13 04:59:48;;;;;;;4.93;4.30;;;;;;;5.53;66.29;98977.78;5072261;28;20618;-56
2022/12/13 05:02:15;;;;;;;5.83;5.10;;;;;;;5.58;66.02;98971.13;5064855;28;20196;-56
2022/12/13 05:04:41;;;;;;;5.97;4.30;;;;;;;5.60;67.16;98972.06;5074191;28;20656;-56
2022/12/13 05:07:08;;;;;;;5.18;4.68;;;;;;;5.65;66.12;98978.13;5073908;28;20782;-56
2022/12/13 05:09:36;;;;;;;4.73;4.33;;;;;;;5.63;66.14;98987.44;5074904;28;20214;-55
2022/12/13 05:12:03;;;;;;;4.53;4.13;;;;;;;5.50;66.13;98957.31;5074279;28;20211;-54
2022/12/13 05:14:30;;;;;;;5.83;4.03;;;;;;;5.65;66.04;98988.34;5073802;28;20253;-55
2022/12/13 05:16:59;;;;;;;5.07;4.47;;;;;;;5.62;66.38;98988.25;5074248;28;20195;-55
2022/12/13 05:19:26;;;;;;;5.20;4.70;;;;;;;5.66;65.50;99000.25;5074015;28;20188;-56
2022/12/13 05:21:53;;;;;;;6.70;4.93;;;;;;;5.62;65.76;99001.84;5073155;28;20251;-57
2022/12/13 05:24:20;;;;;;;5.83;5.03;;;;;;;5.55;66.60;98992.28;5070405;28;20208;-56
2022/12/13 05:26:47;;;;;;;4.97;4.43;;;;;;;5.58;66.17;99004.25;5074262;28;20194;-56
2022/12/13 05:29:14;;;;;;;4.87;4.37;;;;;;;5.59;65.56;99014.50;5073772;28;20616;-56
2022/12/13 05:31:40;;;;;;;5.37;4.87;;;;;;;5.59;66.13;99013.63;5073087;28;20185;-56
2022/12/13 05:34:09;;;;;;;5.23;4.73;;;;;;;5.49;66.23;99024.41;5073439;28;20213;-56
2022/12/13 05:36:35;;;;;;;4.67;4.27;;;;;;;5.56;66.43;99019.50;5073504;28;20678;-56
2022/12/13 05:39:02;;;;;;;6.17;5.30;;;;;;;5.59;66.15;99022.16;5074222;28;20192;-57
2022/12/13 05:41:35;;;;;;;5.93;5.33;;;;;;;5.49;65.50;99022.72;5073577;28;20459;-56
2022/12/13 05:44:02;;;;;;;6.93;5.70;;;;;;;5.47;66.59;99021.78;5073401;28;20192;-55
2022/12/13 05:46:29;;;;;;;5.93;5.33;;;;;;;5.50;65.71;99021.00;5072196;28;20246;-55
2022/12/13 05:48:56;;;;;;;5.90;5.27;;;;;;;5.43;65.47;99027.63;5073220;28;20192;-55
2022/12/13 05:51:24;;;;;;;5.63;4.90;;;;;;;5.42;65.29;99012.28;5073644;28;20194;-55
2022/12/13 05:53:51;;;;;;;6.40;5.40;;;;;;;5.55;65.24;99047.50;5073370;28;20276;-56
2022/12/13 05:56:18;;;;;;;5.90;5.37;;;;;;;5.48;63.53;99041.38;5073412;28;20195;-56
2022/12/13 05:58:44;;;;;;;7.23;6.07;;;;;;;5.50;64.67;99060.09;5073025;28;20192;-56
2022/12/13 06:01:13;;;;;;;6.23;5.57;;;;;;;5.48;64.17;99061.75;5070641;28;20196;-56
2022/12/13 06:03:41;;;;;;;10.80;6.10;;;;;;;5.42;64.47;99081.94;5072897;28;20189;-55
2022/12/13 06:06:10;;;;;;;9.70;6.30;;;;;;;5.43;64.88;99073.47;5073249;28;20646;-56
2022/12/13 06:08:40;;;;;;;6.53;5.70;;;;;;;4.98;64.52;99005.91;5072818;28;20684;-56
2022/12/13 06:11:07;;;;;;;8.30;6.70;;;;;;;5.30;64.52;99069.69;5072797;28;20647;-56
2022/12/13 06:13:34;;;;;;;7.97;6.40;;;;;;;5.38;64.25;99084.34;5072648;28;20206;-55
2022/12/13 06:16:02;;;;;;;8.25;6.70;;;;;;;5.36;64.01;99074.09;5071632;28;20824;-56
2022/12/13 06:18:31;;;;;;;8.17;6.50;;;;;;;5.40;64.27;99080.16;5056385;28;20196;-56
2022/12/13 06:21:00;;;;;;;8.77;6.63;;;;;;;5.39;65.02;99079.28;5052639;28;20193;-55
2022/12/13 06:23:28;;;;;;;9.57;6.43;;;;;;;5.27;64.56;99051.78;5052279;28;20201;-56
2022/12/13 06:25:56;;;;;;;7.10;5.70;;;;;;;5.47;63.53;99085.47;5052338;28;20243;-55
2022/12/13 06:28:23;;;;;;;8.57;5.77;;;;;;;5.43;63.25;99098.09;5052039;28;20243;-56
2022/12/13 06:30:51;;;;;;;9.00;6.30;;;;;;;5.45;63.26;99096.44;5032087;28;20303;-57
2022/12/13 06:33:18;;;;;;;9.93;6.53;;;;;;;5.42;62.54;99104.00;5032572;28;20563;-56
2022/12/13 06:35:45;;;;;;;6.70;5.87;;;;;;;5.41;62.41;99105.69;5032339;28;20216;-55
2022/12/13 06:38:12;;;;;;;12.77;7.30;;;;;;;5.36;62.97;99104.66;5032048;28;20185;-56
2022/12/13 06:40:39;;;;;;;8.67;6.20;;;;;;;5.33;62.10;99102.91;5032277;28;20251;-56
2022/12/13 06:43:08;;;;;;;8.27;5.97;;;;;;;5.36;62.17;99109.75;5031694;28;20200;-56
2022/12/13 06:45:39;;;;;;;8.10;6.60;;;;;;;5.41;61.69;99115.03;5032049;28;20276;-57
2022/12/13 06:48:06;;;;;;;8.60;6.20;;;;;;;5.31;61.48;99119.81;5032223;28;20216;-55
2022/12/13 06:50:33;;;;;;;8.03;6.90;;;;;;;5.32;61.54;99120.69;5031900;28;20200;-56
2022/12/13 06:52:59;;;;;;;13.77;6.80;;;;;;;5.32;61.09;99125.78;5032017;28;20230;-55
2022/12/13 06:55:26;;;;;;;10.77;7.53;;;;;;;5.35;60.69;99116.56;5031699;28;20661;-56
2022/12/13 06:57:53;;;;;;;7.67;6.30;;;;;;;5.31;60.99;99131.69;5037738;28;20201;-55
2022/12/13 07:00:21;;;;;;;9.47;6.73;;;;;;;5.22;60.99;99122.06;5051112;28;20211;-56
2022/12/13 07:02:52;;;;;;;7.80;6.63;;;;;;;5.27;61.04;99138.34;5050792;28;20676;-55
2022/12/13 07:05:19;;;;;;;9.07;7.23;;;;;;;5.35;61.56;99142.03;5049617;28;20192;-56
2022/12/13 07:07:46;;;;;;;8.47;6.83;;;;;;;5.33;61.79;99138.56;5049398;28;20184;-55
2022/12/13 07:10:13;;;;;;;11.00;7.13;;;;;;;5.34;61.90;99136.88;5048995;28;20190;-56
2022/12/13 07:12:40;;;;;;;9.37;7.53;;;;;;;5.34;61.53;99139.44;5050550;28;20224;-55
2022/12/13 07:15:09;;;;;;;8.67;7.00;;;;;;;5.44;62.58;99155.88;5050470;28;20264;-57
2022/12/13 07:17:37;;;;;;;9.87;7.17;;;;;;;5.55;62.50;99149.44;5050523;28;20229;-55
2022/12/13 07:20:06;;;;;;;10.50;8.10;;;;;;;5.59;62.05;99146.13;5049559;28;20225;-56
2022/12/13 07:22:33;;;;;;;9.63;6.50;;;;;;;5.67;61.29;99144.69;5047911;28;20188;-55
2022/12/13 07:25:00;;;;;;;11.07;6.90;;;;;;;5.65;61.39;99151.41;5051356;28;20193;-55
2022/12/13 07:27:26;;;;;;;10.17;7.17;;;;;;;5.60;60.95;99152.97;5050882;28;20216;-56
2022/12/13 07:29:53;;;;;;;9.23;7.17;;;;;;;5.60;62.85;99164.03;5046852;28;20262;-55
2022/12/13 07:32:20;;;;;;;8.47;6.80;;;;;;;5.63;61.65;99155.63;5051806;28;20200;-55
2022/12/13 07:34:49;;;;;;;9.80;6.43;;;;;;;5.64;62.55;99159.88;5016081;28;20216;-56
2022/12/13 07:37:16;;;;;;;7.73;6.80;;;;;;;5.70;63.09;99162.59;5051078;28;20253;-56
2022/12/13 07:39:43;;;;;;;8.07;6.90;;;;;;;5.68;62.93;99161.72;5051017;28;20204;-57
2022/12/13 07:42:10;;;;;;;10.27;6.57;;;;;;;5.77;62.95;99161.97;5051372;28;20282;-57
2022/12/13 07:44:37;;;;;;;14.57;7.53;;;;;;;5.82;62.44;99163.81;5050597;28;20196;-55
2022/12/13 07:47:03;;;;;;;12.03;8.53;;;;;;;5.89;61.38;99168.34;5050902;28;20210;-57
2022/12/13 07:49:30;;;;;;;8.50;7.47;;;;;;;5.99;61.34;99173.72;5050839;28;20680;-56
2022/12/13 07:51:58;;;;;;;8.67;6.50;;;;;;;5.92;59.09;99173.53;5052229;28;20586;-56
2022/12/13 07:54:25;;;;;;;8.10;6.47;;;;;;;5.91;58.94;99176.00;5050779;28;20192;-56
2022/12/13 07:56:52;;;;;;;9.37;7.20;;;;;;;5.99;59.59;99174.56;5051138;28;20643;-55
2022/12/13 07:59:19;;;;;;;13.80;7.47;;;;;;;5.99;58.85;99174.56;5050791;28;20567;-55
2022/12/13 08:01:46;;;;;;;9.03;7.03;;;;;;;6.05;59.38;99179.84;5051273;28;20725;-55
2022/12/13 08:04:13;;;;;;;9.13;7.37;;;;;;;5.94;59.21;99181.22;5050913;28;20200;-55
2022/12/13 08:06:40;;;;;;;9.57;6.90;;;;;;;6.05;58.22;99173.84;5051220;28;20219;-55
2022/12/13 08:09:09;;;;;;;10.57;6.70;;;;;;;5.97;58.57;99172.78;5051380;28;20198;-56
2022/12/13 08:11:35;;;;;;;8.63;6.53;;;;;;;5.98;58.10;99179.63;5054651;28;20189;-56
2022/12/13 08:14:03;;;;;;;9.57;6.87;;;;;;;5.98;57.56;99180.50;5054906;28;20606;-56
2022/12/13 08:16:30;;;;;;;11.40;6.80;;;;;;;5.98;57.19;99184.72;5054947;28;20286;-56
2022/12/13 08:18:57;;;;;;;8.90;6.67;;;;;;;5.91;56.42;99184.53;5054635;28;20216;-56
2022/12/13 08:21:24;;;;;;;8.67;7.00;;;;;;;5.93;56.21;99190.53;5054438;28;20249;-55
2022/12/13 08:23:50;;;;;;;8.83;7.00;;;;;;;5.87;55.64;99197.16;5054396;28;20193;-56
2022/12/13 08:26:18;;;;;;;7.67;6.20;;;;;;;5.94;55.47;99196.50;5056513;28;20682;-56
2022/12/13 08:28:45;;;;;;;7.70;5.93;;;;;;;5.89;55.20;99201.47;5074918;28;20218;-55
2022/12/13 08:31:13;;;;;;;9.02;6.15;;;;;;;5.87;55.93;99195.47;5072676;28;20446;-55
2022/12/13 08:33:42;;;;;;;10.20;7.13;;;;;;;5.90;55.42;99204.91;5073690;28;20187;-55
2022/12/13 08:36:10;;;;;;;10.23;7.37;;;;;;;6.01;55.87;99206.09;5047681;28;20633;-55
2022/12/13 08:38:37;;;;;;;9.37;6.37;;;;;;;6.07;54.93;99201.13;5053787;28;20675;-55
2022/12/13 08:41:04;;;;;;;9.97;6.33;;;;;;;5.88;55.93;99184.44;5052946;28;20197;-56
2022/12/13 08:43:32;;;;;;;10.00;6.37;;;;;;;5.93;55.98;99189.69;5064407;28;20206;-56
2022/12/13 08:45:59;;;;;;;8.00;6.50;;;;;;;5.94;55.37;99205.03;5046390;28;20204;-55
2022/12/13 08:48:26;;;;;;;9.67;7.20;;;;;;;6.01;54.84;99200.97;5043984;28;20197;-56
2022/12/13 08:50:53;;;;;;;9.33;6.70;;;;;;;6.16;54.22;99187.78;5049921;28;20205;-57
2022/12/13 08:53:20;;;;;;;8.97;7.10;;;;;;;6.23;53.67;99190.56;5053112;28;20228;-56
2022/12/13 08:55:47;;;;;;;8.87;6.30;;;;;;;6.18;52.64;99192.09;5054060;28;20224;-55
2022/12/13 08:58:13;;;;;;;9.27;6.30;;;;;;;6.15;52.43;99178.44;5053743;28;20201;-55
2022/12/13 09:00:44;;;;;;;9.10;6.50;;;;;;;6.09;52.22;99147.63;5054314;28;20342;-56
2022/12/13 09:03:13;;;;;;;9.53;6.77;;;;;;;6.19;52.66;99167.47;5054301;28;20682;-56
2022/12/13 09:05:40;;;;;;;8.40;6.73;;;;;;;6.36;52.27;99182.44;5053997;28;20208;-56
2022/12/13 09:08:07;;;;;;;9.17;7.50;;;;;;;6.39;52.38;99185.06;5052367;28;20187;-55
2022/12/13 09:10:34;;;;;;;9.00;7.40;;;;;;;6.40;52.82;99180.84;5053886;28;20189;-56
2022/12/13 09:13:01;;;;;;;9.27;7.00;;;;;;;6.47;52.63;99181.03;5054190;28;20192;-55
2022/12/13 09:15:28;;;;;;;10.13;7.27;;;;;;;6.41;51.81;99150.25;5053858;28;20227;-56
2022/12/13 09:17:56;;;;;;;9.13;7.03;;;;;;;6.54;51.34;99176.94;5053845;28;20193;-56
2022/12/13 09:20:23;;;;;;;8.43;6.87;;;;;;;6.55;52.16;99163.38;5053356;28;20681;-55
2022/12/13 09:22:51;;;;;;;10.10;8.10;;;;;;;6.57;51.96;99166.81;5054070;28;20194;-56
2022/12/13 09:25:18;;;;;;;10.93;8.00;;;;;;;6.65;51.70;99165.34;5053851;28;20196;-57
2022/12/13 09:27:45;;;;;;;12.80;7.63;;;;;;;6.68;51.33;99172.22;5053614;28;20575;-55
2022/12/13 09:30:12;;;;;;;9.70;7.53;;;;;;;6.62;51.41;99167.81;5053473;28;20199;-56
2022/12/13 09:32:40;;;;;;;9.43;7.70;;;;;;;6.67;51.69;99165.41;5053472;28;20194;-56
2022/12/13 09:35:09;;;;;;;11.00;7.77;;;;;;;6.84;51.56;99166.72;5053363;28;20263;-56
2022/12/13 09:37:36;;;;;;;12.57;7.90;;;;;;;6.89;51.86;99166.00;5053157;28;20202;-57
2022/12/13 09:40:03;;;;;;;10.30;7.57;;;;;;;7.05;51.83;99168.09;5041091;28;20834;-55
2022/12/13 09:42:31;;;;;;;10.17;7.43;;;;;;;7.09;51.50;99154.56;5033541;28;20228;-55
2022/12/13 09:45:00;;;;;;;9.73;8.17;;;;;;;7.06;51.01;99156.16;5033680;28;20666;-55
2022/12/13 09:47:32;;;;;;;13.20;7.70;;;;;;;7.15;50.86;99148.75;5035689;28;20198;-56
2022/12/13 09:50:01;;;;;;;9.47;7.83;;;;;;;7.20;50.63;99146.31;5053668;28;20198;-56
2022/12/13 09:52:36;;;;;;;10.30;7.43;;;;;;;7.17;50.58;99139.41;5053227;28;20253;-55
2022/12/13 09:55:16;;;;;;;10.73;9.13;;;;;;;6.97;50.79;99104.88;5052000;28;20438;-56
2022/12/13 09:57:44;;;;;;;9.60;7.47;;;;;;;7.14;50.22;99139.38;5048624;28;20641;-55
2022/12/13 10:00:14;;;;;;;11.50;7.80;;;;;;;7.01;50.43;99129.66;5032773;28;20190;-55
2022/12/13 10:02:45;;;;;;;9.40;7.30;;;;;;;6.96;50.13;99137.22;5032894;28;20206;-56
2022/12/13 10:05:23;;;;;;;10.50;7.50;;;;;;;6.92;51.44;99132.84;5033171;28;20189;-54
2022/12/13 10:07:54;;;;;;;9.50;8.10;;;;;;;6.85;51.49;99119.91;5032870;28;20655;-54
2022/12/13 10:10:21;;;;;;;9.37;7.60;;;;;;;6.69;52.12;99105.03;5033630;28;20208;-56
2022/12/13 10:12:55;;;;;;;10.93;7.63;;;;;;;6.75;51.68;99135.81;5033337;28;20269;-56
2022/12/13 10:15:24;;;;;;;9.77;7.40;;;;;;;6.76;52.42;99127.31;5048062;28;20226;-56
2022/12/13 10:17:50;;;;;;;10.03;7.60;;;;;;;6.77;51.09;99116.28;5032750;28;20208;-55
2022/12/13 10:20:20;;;;;;;10.97;8.40;;;;;;;6.88;51.72;99130.19;5032674;28;20216;-56
2022/12/13 10:22:47;;;;;;;11.90;7.77;;;;;;;7.02;51.13;99134.81;5032025;28;20611;-56
2022/12/13 10:25:15;;;;;;;8.10;6.97;;;;;;;7.02;50.77;99136.50;5047723;28;20202;-55
2022/12/13 10:27:44;;;;;;;9.33;6.90;;;;;;;7.11;50.65;99131.63;5050180;28;20198;-56
2022/12/13 10:30:15;;;;;;;8.30;7.20;;;;;;;7.19;50.23;99125.00;5052318;28;20197;-56
2022/12/13 10:32:53;;;;;;;14.07;7.87;;;;;;;7.13;50.23;99114.63;5051975;28;20203;-55
2022/12/13 10:35:26;;;;;;;11.27;7.10;;;;;;;7.20;49.87;99120.78;5053034;28;20220;-56
2022/12/13 10:37:54;;;;;;;10.20;7.30;;;;;;;7.30;49.46;99112.47;5052412;28;20885;-56
2022/12/13 10:40:30;;;;;;;10.93;7.40;;;;;;;7.44;49.13;99109.41;5052370;28;20199;-56
2022/12/13 10:43:16;;;;;;;8.57;6.43;;;;;;;7.47;48.43;99121.41;5052056;28;20190;-56
2022/12/13 10:45:44;;;;;;;11.27;7.47;;;;;;;7.58;48.31;99110.56;5051832;28;20201;-56
2022/12/13 10:48:20;;;;;;;8.20;6.90;;;;;;;7.77;47.67;99098.19;5051937;28;20225;-56
2022/12/13 10:50:58;;;;;;;8.37;6.80;;;;;;;7.88;47.88;99083.91;5051800;28;20258;-56
2022/12/13 10:53:29;;;;;;;8.93;6.73;;;;;;;8.18;46.82;99105.84;5051807;28;20512;-56
2022/12/13 10:55:58;;;;;;;8.97;7.47;;;;;;;8.37;46.75;99101.97;5051839;28;20222;-55
2022/12/13 10:58:35;;;;;;;8.13;7.33;;;;;;;8.31;46.48;99076.25;5052155;28;20187;-56
2022/12/13 11:01:10;;;;;;;8.73;7.40;;;;;;;8.51;46.31;99085.16;5051684;28;20249;-57
2022/12/13 11:03:36;;;;;;;8.27;6.63;;;;;;;8.63;46.07;99075.13;5051656;28;20196;-55
2022/12/13 11:06:12;;;;;;;10.97;7.73;;;;;;;8.66;45.94;99054.69;5051576;28;20199;-56
2022/12/13 11:08:40;;;;;;;11.70;8.70;;;;;;;8.89;45.95;99084.13;5056733;28;20203;-55
2022/12/13 11:11:09;;;;;;;11.00;8.17;;;;;;;8.96;45.92;99069.69;5053031;28;20282;-54
2022/12/13 11:13:40;;;;;;;11.67;8.30;;;;;;;9.11;46.01;99075.06;5031444;28;20327;-55
2022/12/13 11:16:21;;;;;;;10.83;7.93;;;;;;;9.09;45.88;99069.03;5031377;28;20220;-55
2022/12/13 11:18:53;;;;;;;9.50;7.60;;;;;;;9.13;45.88;99070.81;5044135;28;20278;-56
2022/12/13 11:21:25;;;;;;;9.43;7.97;;;;;;;9.07;45.90;99046.78;5057220;28;20221;-56
2022/12/13 11:23:54;;;;;;;12.07;8.13;;;;;;;9.26;46.15;99052.19;5052845;28;20200;-55
2022/12/13 11:26:25;;;;;;;10.60;8.17;;;;;;;9.27;45.22;99066.75;5051405;28;20252;-56
2022/12/13 11:29:21;;;;;;;10.10;7.40;;;;;;;9.11;45.56;99056.25;5051380;28;20693;-55
2022/12/13 11:31:59;;;;;;;9.03;7.23;;;;;;;9.18;46.12;99056.34;5051979;28;20189;-56
2022/12/13 11:34:38;;;;;;;13.37;7.87;;;;;;;9.21;46.04;99053.84;5056079;28;20639;-56
2022/12/13 11:37:17;;;;;;;8.63;7.67;;;;;;;9.22;45.93;99049.59;5051280;28;20249;-55
2022/12/13 11:39:49;;;;;;;9.07;7.00;;;;;;;9.30;45.58;99061.69;5049475;28;20200;-56
2022/12/13 11:42:25;;;;;;;9.45;6.90;;;;;;;9.24;44.40;99060.72;5050572;28;20407;-55
2022/12/13 11:45:01;;;;;;;11.93;7.70;;;;;;;9.14;44.73;99069.97;5064389;28;20213;-55
2022/12/13 11:47:35;;;;;;;7.97;6.83;;;;;;;9.02;44.50;99064.66;5075287;28;20204;-56
2022/12/13 11:50:07;;;;;;;8.33;6.80;;;;;;;9.01;45.53;99072.34;5075736;28;20199;-55
2022/12/13 11:52:40;;;;;;;7.77;6.50;;;;;;;8.73;45.61;99061.66;5075648;28;20223;-55
2022/12/13 11:55:17;;;;;;;8.27;6.87;;;;;;;8.73;45.53;99063.34;5075689;28;20241;-55
2022/12/13 11:57:52;;;;;;;9.83;7.23;;;;;;;8.60;46.31;99063.94;5075512;28;20229;-55